createdAt,value
2019-02-02T00:01:11.886Z,2.40
2019-02-02T00:03:40.294Z,2.40
2019-02-02T00:06:08.682Z,2.40
2019-02-02T00:08:37.094Z,2.50
2019-02-02T00:11:05.467Z,2.40
2019-02-02T00:13:33.950Z,2.50
2019-02-02T00:16:02.334Z,2.50
2019-02-02T00:18:30.766Z,2.50
2019-02-02T00:20:59.144Z,2.50
2019-02-02T00:23:27.559Z,2.50
2019-02-02T00:25:55.951Z,2.50
2019-02-02T00:28:24.326Z,2.50
2019-02-02T00:30:52.782Z,2.50
2019-02-02T00:33:21.207Z,2.60
2019-02-02T00:35:49.719Z,2.50
2019-02-02T00:38:18.098Z,2.50
2019-02-02T00:40:46.518Z,2.50
2019-02-02T00:43:14.902Z,2.50
2019-02-02T00:45:43.446Z,2.50
2019-02-02T00:48:11.809Z,2.50
2019-02-02T00:50:40.226Z,2.50
2019-02-02T00:53:08.612Z,2.50
2019-02-02T00:55:37.026Z,2.50
2019-02-02T00:58:05.409Z,2.60
2019-02-02T01:00:33.828Z,2.50
2019-02-02T01:03:02.207Z,2.60
2019-02-02T01:05:30.584Z,2.60
2019-02-02T01:07:58.990Z,2.50
2019-02-02T01:10:30.666Z,2.50
2019-02-02T01:12:59.085Z,2.50
2019-02-02T01:15:27.481Z,2.50
2019-02-02T01:17:55.913Z,2.50
2019-02-02T01:20:24.267Z,2.50
2019-02-02T01:22:52.714Z,2.50
2019-02-02T01:25:21.085Z,2.50
2019-02-02T01:27:49.493Z,2.50
2019-02-02T01:30:22.330Z,2.50
2019-02-02T01:32:50.709Z,2.50
2019-02-02T01:35:19.450Z,2.50
2019-02-02T01:37:47.831Z,2.60
2019-02-02T01:40:19.337Z,2.60
2019-02-02T01:42:47.722Z,2.50
2019-02-02T01:45:18.775Z,2.50
2019-02-02T01:47:47.153Z,2.50
2019-02-02T01:50:18.109Z,2.50
2019-02-02T01:52:46.485Z,2.50
2019-02-02T01:55:16.518Z,2.50
2019-02-02T01:57:44.999Z,2.50
2019-02-02T02:00:31.170Z,2.50
2019-02-02T02:02:59.543Z,2.60
2019-02-02T02:05:27.921Z,2.60
2019-02-02T02:07:56.329Z,2.60
2019-02-02T02:10:24.710Z,2.60
2019-02-02T02:12:53.120Z,2.60
2019-02-02T02:15:21.494Z,2.60
2019-02-02T02:17:49.910Z,2.60
2019-02-02T02:20:19.929Z,2.60
2019-02-02T02:22:49.486Z,2.60
2019-02-02T02:25:19.202Z,2.60
2019-02-02T02:27:47.680Z,2.60
2019-02-02T02:30:18.120Z,2.70
2019-02-02T02:32:48.313Z,2.70
2019-02-02T02:35:16.714Z,2.70
2019-02-02T02:37:45.091Z,2.70
2019-02-02T02:40:20.765Z,2.70
2019-02-02T02:42:49.190Z,2.70
2019-02-02T02:45:17.636Z,2.70
2019-02-02T02:47:45.986Z,2.70
2019-02-02T02:50:21.787Z,2.70
2019-02-02T02:52:50.161Z,2.70
2019-02-02T02:55:18.631Z,2.70
2019-02-02T02:57:47.394Z,2.70
2019-02-02T03:00:27.246Z,2.60
2019-02-02T03:02:55.658Z,2.50
2019-02-02T03:05:24.040Z,2.50
2019-02-02T03:07:53.883Z,2.60
2019-02-02T03:10:24.761Z,2.60
2019-02-02T03:12:53.402Z,2.60
2019-02-02T03:15:21.774Z,2.60
2019-02-02T03:17:50.808Z,2.60
2019-02-02T03:20:19.218Z,2.60
2019-02-02T03:22:47.593Z,2.60
2019-02-02T03:25:21.646Z,2.60
2019-02-02T03:27:50.042Z,2.60
2019-02-02T03:30:19.770Z,2.60
2019-02-02T03:32:48.149Z,2.60
2019-02-02T03:35:18.658Z,2.60
2019-02-02T03:37:47.058Z,2.60
2019-02-02T03:40:18.233Z,2.50
2019-02-02T03:42:46.638Z,2.50
2019-02-02T03:45:17.073Z,2.60
2019-02-02T03:47:45.501Z,2.60
2019-02-02T03:50:13.861Z,2.60
2019-02-02T03:52:42.344Z,2.60
2019-02-02T03:55:13.058Z,2.60
2019-02-02T03:57:41.463Z,2.60
2019-02-02T04:00:15.893Z,2.60
2019-02-02T04:02:44.575Z,2.70
2019-02-02T04:05:15.818Z,2.70
2019-02-02T04:07:44.184Z,2.60
2019-02-02T04:10:13.525Z,2.60
2019-02-02T04:12:41.903Z,2.50
2019-02-02T04:15:13.113Z,2.50
2019-02-02T04:17:41.496Z,2.40
2019-02-02T04:20:15.886Z,2.40
2019-02-02T04:22:44.253Z,2.40
2019-02-02T04:25:12.632Z,2.50
2019-02-02T04:27:41.052Z,2.50
2019-02-02T04:30:15.227Z,2.50
2019-02-02T04:32:43.642Z,2.60
2019-02-02T04:35:12.014Z,2.60
2019-02-02T04:37:46.052Z,2.60
2019-02-02T04:40:16.045Z,2.60
2019-02-02T04:42:44.453Z,2.60
2019-02-02T04:45:15.070Z,2.60
2019-02-02T04:47:43.477Z,2.70
2019-02-02T04:50:14.298Z,2.60
2019-02-02T04:52:42.680Z,2.50
2019-02-02T04:55:13.245Z,2.50
2019-02-02T04:57:41.621Z,2.50
2019-02-02T05:00:13.660Z,2.50
2019-02-02T05:02:42.036Z,2.60
2019-02-02T05:05:13.489Z,2.60
2019-02-02T05:07:41.873Z,2.60
2019-02-02T05:10:13.572Z,2.60
2019-02-02T05:12:44.936Z,2.60
2019-02-02T05:15:13.348Z,2.60
2019-02-02T05:17:41.733Z,2.60
2019-02-02T05:20:13.336Z,2.70
2019-02-02T05:22:41.709Z,2.70
2019-02-02T05:25:10.828Z,2.60
2019-02-02T05:27:39.236Z,2.60
2019-02-02T05:30:13.505Z,2.60
2019-02-02T05:32:41.917Z,2.60
2019-02-02T05:35:10.860Z,2.60
2019-02-02T05:37:39.273Z,2.60
2019-02-02T05:40:11.064Z,2.60
2019-02-02T05:42:39.503Z,2.60
2019-02-02T05:45:10.503Z,2.60
2019-02-02T05:47:38.910Z,2.60
2019-02-02T05:50:19.102Z,2.60
2019-02-02T05:52:47.518Z,2.60
2019-02-02T05:55:17.840Z,2.70
2019-02-02T05:57:46.212Z,2.60
2019-02-02T06:00:31.116Z,2.60
2019-02-02T06:02:59.530Z,2.60
2019-02-02T06:05:28.025Z,2.60
2019-02-02T06:07:56.414Z,2.60
2019-02-02T06:10:24.798Z,2.60
2019-02-02T06:12:53.173Z,2.60
2019-02-02T06:15:21.592Z,2.60
2019-02-02T06:17:49.965Z,2.60
2019-02-02T06:20:18.381Z,2.60
2019-02-02T06:22:46.763Z,2.60
2019-02-02T06:25:15.836Z,2.60
2019-02-02T06:27:44.343Z,2.60
2019-02-02T06:30:23.781Z,2.60
2019-02-02T06:32:52.156Z,2.60
2019-02-02T06:35:20.565Z,2.70
2019-02-02T06:37:48.946Z,2.70
2019-02-02T06:40:17.706Z,2.70
2019-02-02T06:42:46.083Z,2.70
2019-02-02T06:45:17.744Z,2.70
2019-02-02T06:47:46.129Z,2.70
2019-02-02T06:50:16.673Z,2.70
2019-02-02T06:52:45.112Z,2.70
2019-02-02T06:55:15.829Z,2.60
2019-02-02T06:57:44.302Z,2.60
2019-02-02T07:00:18.755Z,2.50
2019-02-02T07:02:47.139Z,2.50
2019-02-02T07:05:15.597Z,2.50
2019-02-02T07:07:44.045Z,2.50
2019-02-02T07:10:15.642Z,2.60
2019-02-02T07:12:44.049Z,2.60
2019-02-02T07:15:15.179Z,2.60
2019-02-02T07:17:43.585Z,2.70
2019-02-02T07:20:13.405Z,2.70
2019-02-02T07:22:41.808Z,2.80
2019-02-02T07:25:11.145Z,2.80
2019-02-02T07:27:39.509Z,2.80
2019-02-02T07:30:27.557Z,2.90
2019-02-02T07:32:47.015Z,2.90
2019-02-02T07:35:15.424Z,2.90
2019-02-02T07:37:43.835Z,2.90
2019-02-02T07:40:14.652Z,2.90
2019-02-02T07:42:43.064Z,3.00
2019-02-02T07:45:23.167Z,3.00
2019-02-02T07:47:51.544Z,3.00
2019-02-02T07:50:19.924Z,3.00
2019-02-02T07:52:48.350Z,2.90
2019-02-02T07:55:21.166Z,3.00
2019-02-02T07:57:49.647Z,3.00
2019-02-02T08:00:40.247Z,3.00
2019-02-02T08:02:59.734Z,3.00
2019-02-02T08:05:28.083Z,3.00
2019-02-02T08:07:56.498Z,3.00
2019-02-02T08:10:24.894Z,3.10
2019-02-02T08:12:53.314Z,3.10
2019-02-02T08:15:24.590Z,3.10
2019-02-02T08:17:53.139Z,3.10
2019-02-02T08:20:21.681Z,3.10
2019-02-02T08:22:50.127Z,3.10
2019-02-02T08:25:18.869Z,3.20
2019-02-02T08:27:47.567Z,3.10
2019-02-02T08:30:21.729Z,3.20
2019-02-02T08:32:54.024Z,3.10
2019-02-02T08:35:22.804Z,3.10
2019-02-02T08:37:51.360Z,3.20
2019-02-02T08:40:20.520Z,3.20
2019-02-02T08:42:51.310Z,3.20
2019-02-02T08:45:20.135Z,3.20
2019-02-02T08:47:48.613Z,3.10
2019-02-02T08:50:32.117Z,3.10
2019-02-02T08:53:00.790Z,3.10
2019-02-02T08:55:29.292Z,3.00
2019-02-02T08:57:57.681Z,3.00
2019-02-02T09:00:28.533Z,3.00
2019-02-02T09:02:57.685Z,3.00
2019-02-02T09:05:26.105Z,3.00
2019-02-02T09:07:54.586Z,3.00
2019-02-02T09:10:28.102Z,3.10
2019-02-02T09:12:57.674Z,3.10
2019-02-02T09:15:26.198Z,3.10
2019-02-02T09:17:54.596Z,3.10
2019-02-02T09:20:23.005Z,3.00
2019-02-02T09:23:02.607Z,3.00
2019-02-02T09:25:21.470Z,3.00
2019-02-02T09:27:49.893Z,3.00
2019-02-02T09:30:20.619Z,3.00
2019-02-02T09:32:49.006Z,3.10
2019-02-02T09:35:17.443Z,3.10
2019-02-02T09:37:45.836Z,3.10
2019-02-02T09:40:16.597Z,3.10
2019-02-02T09:42:45.042Z,3.00
2019-02-02T09:45:16.463Z,3.00
2019-02-02T09:47:44.961Z,3.00
2019-02-02T09:50:16.875Z,3.10
2019-02-02T09:52:45.250Z,3.20
2019-02-02T09:55:16.459Z,3.30
2019-02-02T09:57:44.849Z,3.30
2019-02-02T10:00:25.741Z,3.40
2019-02-02T10:02:54.365Z,3.50
2019-02-02T10:05:22.743Z,3.60
2019-02-02T10:07:51.158Z,3.60
2019-02-02T10:10:22.811Z,3.60
2019-02-02T10:12:51.226Z,3.70
2019-02-02T10:15:19.678Z,3.70
2019-02-02T10:17:49.783Z,3.70
2019-02-02T10:20:21.122Z,3.70
2019-02-02T10:22:49.541Z,3.60
2019-02-02T10:25:25.721Z,3.60
2019-02-02T10:27:54.575Z,3.60
2019-02-02T10:30:28.965Z,3.60
2019-02-02T10:32:57.377Z,3.60
2019-02-02T10:35:25.767Z,3.60
2019-02-02T10:37:54.238Z,3.60
2019-02-02T10:40:22.622Z,3.60
2019-02-02T10:42:51.003Z,3.70
2019-02-02T10:45:19.562Z,3.80
2019-02-02T10:47:47.952Z,3.90
2019-02-02T10:50:22.197Z,4.00
2019-02-02T10:52:50.584Z,4.10
2019-02-02T10:55:19.032Z,4.10
2019-02-02T10:57:47.384Z,4.30
2019-02-02T11:00:20.976Z,4.40
2019-02-02T11:02:49.350Z,4.40
2019-02-02T11:05:17.977Z,4.40
2019-02-02T11:07:46.654Z,4.40
2019-02-02T11:10:26.744Z,4.40
2019-02-02T11:12:55.183Z,4.50
2019-02-02T11:15:24.289Z,4.50
2019-02-02T11:17:52.761Z,4.60
2019-02-02T11:20:29.554Z,4.60
2019-02-02T11:22:57.939Z,4.80
2019-02-02T11:25:26.271Z,4.80
2019-02-02T11:27:54.862Z,5.00
2019-02-02T11:30:23.403Z,5.10
2019-02-02T11:32:51.788Z,5.20
2019-02-02T11:35:21.542Z,5.50
2019-02-02T11:37:49.933Z,5.70
2019-02-02T11:40:21.386Z,6.00
2019-02-02T11:42:49.792Z,6.20
2019-02-02T11:45:18.167Z,6.30
2019-02-02T11:47:46.615Z,6.60
2019-02-02T11:50:19.555Z,6.70
2019-02-02T11:52:47.924Z,7.10
2019-02-02T11:55:26.711Z,7.40
2019-02-02T11:57:55.092Z,7.50
2019-02-02T12:00:35.185Z,7.80
2019-02-02T12:03:04.520Z,8.30
2019-02-02T12:05:33.033Z,8.90
2019-02-02T12:08:01.406Z,9.20
2019-02-02T12:10:32.415Z,9.70
2019-02-02T12:13:00.786Z,9.90
2019-02-02T12:15:29.160Z,9.50
2019-02-02T12:17:57.584Z,9.40
2019-02-02T12:20:25.961Z,8.90
2019-02-02T12:22:54.369Z,8.60
2019-02-02T12:25:22.744Z,8.40
2019-02-02T12:27:51.153Z,8.20
2019-02-02T12:30:28.324Z,7.90
2019-02-02T12:32:56.736Z,7.60
2019-02-02T12:35:26.866Z,7.50
2019-02-02T12:37:55.346Z,7.50
2019-02-02T12:40:25.253Z,7.50
2019-02-02T12:42:56.296Z,7.40
2019-02-02T12:45:27.987Z,7.40
2019-02-02T12:47:56.510Z,7.30
2019-02-02T12:50:24.917Z,7.10
2019-02-02T12:52:53.346Z,7.10
2019-02-02T12:55:21.734Z,7.00
2019-02-02T12:57:50.155Z,7.00
2019-02-02T13:00:20.078Z,6.90
2019-02-02T13:02:48.492Z,6.70
2019-02-02T13:05:19.447Z,6.70
2019-02-02T13:07:47.892Z,6.90
2019-02-02T13:10:28.102Z,7.10
2019-02-02T13:12:56.557Z,7.40
2019-02-02T13:15:25.041Z,7.60
2019-02-02T13:17:53.446Z,7.80
2019-02-02T13:20:21.858Z,8.10
2019-02-02T13:22:50.272Z,8.20
2019-02-02T13:25:23.597Z,8.30
2019-02-02T13:27:52.260Z,8.30
2019-02-02T13:30:39.949Z,8.30
2019-02-02T13:33:09.659Z,8.40
2019-02-02T13:35:38.430Z,8.60
2019-02-02T13:38:06.878Z,8.60
2019-02-02T13:40:35.282Z,8.60
2019-02-02T13:43:03.692Z,8.60
2019-02-02T13:45:32.104Z,8.60
2019-02-02T13:48:00.518Z,8.50
2019-02-02T13:50:28.900Z,8.40
2019-02-02T13:52:57.313Z,8.30
2019-02-02T13:55:25.697Z,8.30
2019-02-02T13:57:54.235Z,8.10
2019-02-02T14:00:29.857Z,7.90
2019-02-02T14:05:49.353Z,7.70
2019-02-02T14:08:18.737Z,7.70
2019-02-02T14:10:48.449Z,7.50
2019-02-02T14:13:18.067Z,7.40
2019-02-02T14:15:51.248Z,7.30
2019-02-02T14:18:19.873Z,7.30
2019-02-02T14:20:50.777Z,7.20
2019-02-02T14:23:20.076Z,7.10
2019-02-02T14:25:49.144Z,7.10
2019-02-02T14:28:27.960Z,7.00
2019-02-02T14:30:54.221Z,6.80
2019-02-02T14:33:24.170Z,6.80
2019-02-02T14:35:54.644Z,6.80
2019-02-02T14:38:29.136Z,6.70
2019-02-02T14:41:08.186Z,6.70
2019-02-02T14:43:43.503Z,6.70
2019-02-02T14:46:13.073Z,6.70
2019-02-02T14:48:46.682Z,6.70
2019-02-02T14:51:18.142Z,6.70
2019-02-02T14:53:49.048Z,6.70
2019-02-02T14:56:20.584Z,6.70
2019-02-02T14:58:49.085Z,6.70
2019-02-02T15:01:18.759Z,6.60
2019-02-02T15:03:49.516Z,6.60
2019-02-02T15:06:22.515Z,6.60
2019-02-02T15:08:57.425Z,6.60
2019-02-02T15:11:27.969Z,6.60
2019-02-02T15:13:58.407Z,6.60
2019-02-02T15:16:28.317Z,6.60
2019-02-02T15:18:57.574Z,6.60
2019-02-02T15:21:29.615Z,6.50
2019-02-02T15:24:05.659Z,6.50
2019-02-02T15:29:24.379Z,6.40
2019-02-02T15:31:54.130Z,6.30
2019-02-02T15:34:34.459Z,6.30
2019-02-02T15:37:01.940Z,6.30
2019-02-02T15:39:32.250Z,6.20
2019-02-02T15:42:09.986Z,6.20
2019-02-02T15:47:26.665Z,6.10
2019-02-02T15:49:55.212Z,6.00
2019-02-02T15:52:24.176Z,5.90
2019-02-02T15:54:52.909Z,5.90
2019-02-02T15:57:21.673Z,5.80
2019-02-02T15:59:50.226Z,5.80
2019-02-02T16:02:18.604Z,5.70
2019-02-02T16:04:46.987Z,5.70
2019-02-02T16:07:15.417Z,5.60
2019-02-02T16:09:43.846Z,5.60
2019-02-02T16:12:12.257Z,5.50
2019-02-02T16:14:40.631Z,5.40
2019-02-02T16:17:09.110Z,5.40
2019-02-02T16:19:37.498Z,5.40
2019-02-02T16:22:05.915Z,5.30
2019-02-02T16:24:34.317Z,5.30
2019-02-02T16:27:02.728Z,5.30
2019-02-02T16:29:31.109Z,5.20
2019-02-02T16:31:59.671Z,5.20
2019-02-02T16:34:28.154Z,5.20
2019-02-02T16:36:56.835Z,5.10
2019-02-02T16:39:26.176Z,5.10
2019-02-02T16:41:55.502Z,5.10
2019-02-02T16:44:23.940Z,5.10
2019-02-02T16:46:52.326Z,5.00
2019-02-02T16:49:20.737Z,5.00
2019-02-02T16:51:49.116Z,5.00
2019-02-02T16:54:17.525Z,4.90
2019-02-02T16:56:45.913Z,4.90
2019-02-02T16:59:14.330Z,4.80
2019-02-02T17:01:44.439Z,4.80
2019-02-02T17:04:15.942Z,4.60
2019-02-02T17:06:43.997Z,4.50
2019-02-02T17:09:14.116Z,4.40
2019-02-02T17:11:43.205Z,4.10
2019-02-02T17:14:11.670Z,4.10
2019-02-02T17:16:40.159Z,3.90
2019-02-02T17:19:08.545Z,3.90
2019-02-02T17:21:37.169Z,3.80
2019-02-02T17:24:05.609Z,3.60
2019-02-02T17:26:34.917Z,3.60
2019-02-02T17:29:03.294Z,3.50
2019-02-02T17:31:31.709Z,3.30
2019-02-02T17:34:00.126Z,3.20
2019-02-02T17:36:28.509Z,3.20
2019-02-02T17:38:56.926Z,3.10
2019-02-02T17:41:25.301Z,3.00
2019-02-02T17:43:53.705Z,2.90
2019-02-02T17:46:22.076Z,2.80
2019-02-02T17:48:50.485Z,2.70
2019-02-02T17:51:18.870Z,2.70
2019-02-02T17:53:47.245Z,2.60
2019-02-02T17:56:15.657Z,2.60
2019-02-02T17:58:44.041Z,2.50
2019-02-02T18:01:12.452Z,2.40
2019-02-02T18:03:40.859Z,2.40
2019-02-02T18:06:09.242Z,2.30
2019-02-02T18:08:37.630Z,2.20
2019-02-02T18:11:06.029Z,2.10
2019-02-02T18:13:34.411Z,2.10
2019-02-02T18:16:02.832Z,2.10
2019-02-02T18:18:31.214Z,2.00
2019-02-02T18:20:59.627Z,2.00
2019-02-02T18:23:28.001Z,2.10
2019-02-02T18:25:59.508Z,2.10
2019-02-02T18:28:27.885Z,2.20
2019-02-02T18:30:56.301Z,2.20
2019-02-02T18:33:24.686Z,2.30
2019-02-02T18:35:53.100Z,2.30
2019-02-02T18:38:21.513Z,2.40
2019-02-02T18:40:51.886Z,2.40
2019-02-02T18:43:20.212Z,2.50
2019-02-02T18:45:48.597Z,2.60
2019-02-02T18:48:17.001Z,2.70
2019-02-02T18:50:45.380Z,2.70
2019-02-02T18:53:13.798Z,2.70
2019-02-02T18:55:51.254Z,2.70
2019-02-02T18:58:19.661Z,2.70
2019-02-02T19:00:48.118Z,2.80
2019-02-02T19:03:16.539Z,2.80
2019-02-02T19:05:45.076Z,2.90
2019-02-02T19:08:13.735Z,2.90
2019-02-02T19:10:42.786Z,3.00
2019-02-02T19:13:11.531Z,3.00
2019-02-02T19:15:40.183Z,3.10
2019-02-02T19:18:08.574Z,3.20
2019-02-02T19:20:37.589Z,3.20
2019-02-02T19:23:06.192Z,3.20
2019-02-02T19:25:34.593Z,3.20
2019-02-02T19:28:04.790Z,3.30
2019-02-02T19:30:34.459Z,3.40
2019-02-02T19:33:02.830Z,3.40
2019-02-02T19:35:37.527Z,3.50
2019-02-02T19:38:05.981Z,3.60
2019-02-02T19:40:34.444Z,3.60
2019-02-02T19:43:02.858Z,3.60
2019-02-02T19:45:31.339Z,3.60
2019-02-02T19:47:59.733Z,3.60
2019-02-02T19:50:29.692Z,3.60
2019-02-02T19:52:58.073Z,3.70
2019-02-02T19:55:26.481Z,3.60
2019-02-02T19:57:54.890Z,3.70
2019-02-02T20:00:27.615Z,3.70
2019-02-02T20:02:56.034Z,3.70
2019-02-02T20:05:28.794Z,3.80
2019-02-02T20:07:57.557Z,3.80
2019-02-02T20:10:27.511Z,3.80
2019-02-02T20:12:59.513Z,3.80
2019-02-02T20:15:28.216Z,3.70
2019-02-02T20:18:09.426Z,3.70
2019-02-02T20:20:29.390Z,3.70
2019-02-02T20:22:57.873Z,3.70
2019-02-02T20:25:29.400Z,3.70
2019-02-02T20:28:01.606Z,3.70
2019-02-02T20:30:33.253Z,3.70
2019-02-02T20:33:01.659Z,3.70
2019-02-02T20:35:42.102Z,3.70
2019-02-02T20:38:03.905Z,3.70
2019-02-02T20:40:33.766Z,3.70
2019-02-02T20:43:02.182Z,3.70
2019-02-02T20:45:38.667Z,3.70
2019-02-02T20:48:10.903Z,3.70
2019-02-02T20:50:39.985Z,3.60
2019-02-02T20:53:08.614Z,3.60
2019-02-02T20:55:40.519Z,3.50
2019-02-02T20:58:08.937Z,3.50
2019-02-02T21:00:37.532Z,3.40
2019-02-02T21:03:05.994Z,3.50
2019-02-02T21:05:34.432Z,3.40
2019-02-02T21:08:03.317Z,3.40
2019-02-02T21:10:31.694Z,3.50
2019-02-02T21:13:00.131Z,3.50
2019-02-02T21:15:28.565Z,3.50
2019-02-02T21:17:56.957Z,3.60
2019-02-02T21:20:27.618Z,3.60
2019-02-02T21:22:56.003Z,3.60
2019-02-02T21:25:24.590Z,3.70
2019-02-02T21:27:53.082Z,3.70
2019-02-02T21:30:30.139Z,3.70
2019-02-02T21:32:58.525Z,3.70
2019-02-02T21:35:27.006Z,3.70
2019-02-02T21:37:55.397Z,3.80
2019-02-02T21:40:26.241Z,3.80
2019-02-02T21:42:54.673Z,3.80
2019-02-02T21:45:23.068Z,3.80
2019-02-02T21:47:51.870Z,3.80
2019-02-02T21:50:22.196Z,3.80
2019-02-02T21:52:50.780Z,3.80
2019-02-02T21:55:21.868Z,3.80
2019-02-02T21:57:51.260Z,3.80
2019-02-02T22:00:22.675Z,3.90
2019-02-02T22:02:53.239Z,3.80
2019-02-02T22:05:21.855Z,3.80
2019-02-02T22:07:50.311Z,3.70
2019-02-02T22:10:18.732Z,3.70
2019-02-02T22:12:47.155Z,3.70
2019-02-02T22:15:27.171Z,3.70
2019-02-02T22:17:55.597Z,3.70
2019-02-02T22:20:23.977Z,3.70
2019-02-02T22:22:52.395Z,3.70
2019-02-02T22:25:23.779Z,3.70
2019-02-02T22:27:52.342Z,3.70
2019-02-02T22:30:26.020Z,3.80
2019-02-02T22:32:54.437Z,3.70
2019-02-02T22:35:23.429Z,3.70
2019-02-02T22:37:51.830Z,3.60
2019-02-02T22:40:25.370Z,3.70
2019-02-02T22:42:53.754Z,3.70
2019-02-02T22:45:22.414Z,3.70
2019-02-02T22:47:51.324Z,3.70
2019-02-02T22:50:21.678Z,3.70
2019-02-02T22:52:50.062Z,3.70
2019-02-02T22:55:20.125Z,3.70
2019-02-02T22:57:48.499Z,3.70
2019-02-02T23:00:51.928Z,3.70
2019-02-02T23:03:35.034Z,3.80
2019-02-02T23:06:41.549Z,3.70
2019-02-02T23:09:38.901Z,3.80
2019-02-02T23:12:13.452Z,3.70
2019-02-02T23:14:53.748Z,3.70
2019-02-02T23:17:22.162Z,3.70
2019-02-02T23:19:50.538Z,3.70
2019-02-02T23:22:19.049Z,3.70
2019-02-02T23:24:47.417Z,3.70
2019-02-02T23:27:15.821Z,3.70
2019-02-02T23:29:44.211Z,3.70
2019-02-02T23:32:12.622Z,3.60
2019-02-02T23:34:40.997Z,3.50
2019-02-02T23:37:09.511Z,3.50
2019-02-02T23:39:37.887Z,3.40
2019-02-02T23:42:06.285Z,3.30
2019-02-02T23:44:34.661Z,3.30
2019-02-02T23:47:03.077Z,3.40
2019-02-02T23:49:31.452Z,3.50
2019-02-02T23:51:59.841Z,3.50
2019-02-02T23:54:28.249Z,3.60
2019-02-02T23:56:56.630Z,3.60
2019-02-02T23:59:25.038Z,3.60
